sensor_id;sensor_type;location;lat;lon;timestamp;temperature;humidity
53272;DHT22;39160;48.580;7.756;2023-04-19T00:01:56;12.70;99.90
53272;DHT22;39160;48.580;7.756;2023-04-19T00:06:47;12.70;99.90
53272;DHT22;39160;48.580;7.756;2023-04-19T00:11:37;12.60;99.90
53272;DHT22;39160;48.580;7.756;2023-04-19T00:16:28;12.60;99.90
53272;DHT22;39160;48.580;7.756;2023-04-19T00:21:20;12.60;99.90
53272;DHT22;39160;48.580;7.756;2023-04-19T00:26:11;12.50;99.90
53272;DHT22;39160;48.580;7.756;2023-04-19T00:31:04;12.50;99.90
53272;DHT22;39160;48.580;7.756;2023-04-19T00:35:55;12.40;99.90
53272;DHT22;39160;48.580;7.756;2023-04-19T00:40:46;12.40;99.90
53272;DHT22;39160;48.580;7.756;2023-04-19T00:45:36;12.30;99.90
53272;DHT22;39160;48.580;7.756;2023-04-19T00:50:27;12.30;99.90
53272;DHT22;39160;48.580;7.756;2023-04-19T00:55:18;12.30;99.90
53272;DHT22;39160;48.580;7.756;2023-04-19T01:00:09;12.20;99.90
53272;DHT22;39160;48.580;7.756;2023-04-19T01:05:00;12.20;99.90
53272;DHT22;39160;48.580;7.756;2023-04-19T01:09:51;12.20;99.90
53272;DHT22;39160;48.580;7.756;2023-04-19T01:19:42;12.10;99.90
53272;DHT22;39160;48.580;7.756;2023-04-19T01:24:33;12.20;99.90
53272;DHT22;39160;48.580;7.756;2023-04-19T01:29:23;12.10;99.90
53272;DHT22;39160;48.580;7.756;2023-04-19T01:34:14;12.10;99.90
53272;DHT22;39160;48.580;7.756;2023-04-19T01:39:05;12.10;99.90
53272;DHT22;39160;48.580;7.756;2023-04-19T01:43:55;12.10;99.90
53272;DHT22;39160;48.580;7.756;2023-04-19T01:48:46;12.00;99.90
53272;DHT22;39160;48.580;7.756;2023-04-19T01:53:37;12.00;99.90
53272;DHT22;39160;48.580;7.756;2023-04-19T01:58:27;12.00;99.90
53272;DHT22;39160;48.580;7.756;2023-04-19T02:03:18;12.00;99.90
53272;DHT22;39160;48.580;7.756;2023-04-19T02:08:08;12.00;99.90
53272;DHT22;39160;48.580;7.756;2023-04-19T02:12:59;12.00;99.90
53272;DHT22;39160;48.580;7.756;2023-04-19T02:17:49;12.00;99.90
53272;DHT22;39160;48.580;7.756;2023-04-19T02:22:40;11.90;99.90
53272;DHT22;39160;48.580;7.756;2023-04-19T02:27:33;11.90;99.90
53272;DHT22;39160;48.580;7.756;2023-04-19T02:32:23;11.90;99.90
53272;DHT22;39160;48.580;7.756;2023-04-19T02:37:14;11.80;99.90
53272;DHT22;39160;48.580;7.756;2023-04-19T02:42:04;11.90;99.90
53272;DHT22;39160;48.580;7.756;2023-04-19T02:46:55;11.80;99.90
53272;DHT22;39160;48.580;7.756;2023-04-19T02:51:47;11.80;99.90
53272;DHT22;39160;48.580;7.756;2023-04-19T02:56:39;11.80;99.90
53272;DHT22;39160;48.580;7.756;2023-04-19T03:01:30;11.70;99.90
53272;DHT22;39160;48.580;7.756;2023-04-19T03:06:21;11.70;99.90
53272;DHT22;39160;48.580;7.756;2023-04-19T03:11:14;11.70;99.90
53272;DHT22;39160;48.580;7.756;2023-04-19T03:16:05;11.70;99.90
53272;DHT22;39160;48.580;7.756;2023-04-19T03:20:56;11.70;99.90
53272;DHT22;39160;48.580;7.756;2023-04-19T03:25:46;11.60;99.90
53272;DHT22;39160;48.580;7.756;2023-04-19T03:30:37;11.60;99.90
53272;DHT22;39160;48.580;7.756;2023-04-19T03:35:27;11.60;99.90
53272;DHT22;39160;48.580;7.756;2023-04-19T03:40:20;11.50;99.90
53272;DHT22;39160;48.580;7.756;2023-04-19T03:45:11;11.60;99.90
53272;DHT22;39160;48.580;7.756;2023-04-19T03:50:01;11.60;99.90
53272;DHT22;39160;48.580;7.756;2023-04-19T03:54:52;11.50;99.90
53272;DHT22;39160;48.580;7.756;2023-04-19T03:59:43;11.50;99.90
53272;DHT22;39160;48.580;7.756;2023-04-19T04:04:33;11.50;99.90
53272;DHT22;39160;48.580;7.756;2023-04-19T04:09:24;11.50;99.90
53272;DHT22;39160;48.580;7.756;2023-04-19T04:14:15;11.50;99.90
53272;DHT22;39160;48.580;7.756;2023-04-19T04:19:05;11.50;99.90
53272;DHT22;39160;48.580;7.756;2023-04-19T04:23:56;11.50;99.90
53272;DHT22;39160;48.580;7.756;2023-04-19T04:28:47;11.40;99.90
53272;DHT22;39160;48.580;7.756;2023-04-19T04:33:38;11.40;99.90
53272;DHT22;39160;48.580;7.756;2023-04-19T04:38:29;11.30;99.90
53272;DHT22;39160;48.580;7.756;2023-04-19T04:43:21;11.30;99.90
53272;DHT22;39160;48.580;7.756;2023-04-19T04:48:12;11.20;99.90
53272;DHT22;39160;48.580;7.756;2023-04-19T04:53:03;11.20;99.90
53272;DHT22;39160;48.580;7.756;2023-04-19T04:57:54;11.30;99.90
53272;DHT22;39160;48.580;7.756;2023-04-19T05:02:44;11.30;99.90
53272;DHT22;39160;48.580;7.756;2023-04-19T05:07:35;11.30;99.90
53272;DHT22;39160;48.580;7.756;2023-04-19T05:12:26;11.20;99.90
53272;DHT22;39160;48.580;7.756;2023-04-19T05:17:18;11.20;99.90
53272;DHT22;39160;48.580;7.756;2023-04-19T05:22:08;11.30;99.90
53272;DHT22;39160;48.580;7.756;2023-04-19T05:26:59;11.30;99.90
53272;DHT22;39160;48.580;7.756;2023-04-19T05:31:51;11.30;99.90
53272;DHT22;39160;48.580;7.756;2023-04-19T05:36:41;11.40;99.90
53272;DHT22;39160;48.580;7.756;2023-04-19T05:41:32;11.50;99.90
53272;DHT22;39160;48.580;7.756;2023-04-19T05:46:22;11.50;99.90
53272;DHT22;39160;48.580;7.756;2023-04-19T05:51:13;11.60;99.90
53272;DHT22;39160;48.580;7.756;2023-04-19T05:56:04;11.60;99.90
53272;DHT22;39160;48.580;7.756;2023-04-19T06:00:54;11.70;99.90
53272;DHT22;39160;48.580;7.756;2023-04-19T06:05:45;11.80;99.90
53272;DHT22;39160;48.580;7.756;2023-04-19T06:10:36;12.00;99.90
53272;DHT22;39160;48.580;7.756;2023-04-19T06:15:27;12.00;99.90
53272;DHT22;39160;48.580;7.756;2023-04-19T06:20:18;11.90;99.90
53272;DHT22;39160;48.580;7.756;2023-04-19T06:25:08;12.00;99.90
53272;DHT22;39160;48.580;7.756;2023-04-19T06:29:59;11.90;99.90
53272;DHT22;39160;48.580;7.756;2023-04-19T06:34:50;12.00;99.90
53272;DHT22;39160;48.580;7.756;2023-04-19T06:39:41;12.10;99.90
53272;DHT22;39160;48.580;7.756;2023-04-19T06:44:31;12.10;99.90
53272;DHT22;39160;48.580;7.756;2023-04-19T06:49:22;12.30;99.90
53272;DHT22;39160;48.580;7.756;2023-04-19T06:54:13;12.30;99.90
53272;DHT22;39160;48.580;7.756;2023-04-19T06:59:03;12.30;99.90
53272;DHT22;39160;48.580;7.756;2023-04-19T07:03:54;12.30;99.90
53272;DHT22;39160;48.580;7.756;2023-04-19T07:08:45;12.30;99.90
53272;DHT22;39160;48.580;7.756;2023-04-19T07:13:35;12.40;99.90
53272;DHT22;39160;48.580;7.756;2023-04-19T07:18:26;12.50;99.90
53272;DHT22;39160;48.580;7.756;2023-04-19T07:23:17;12.60;99.90
53272;DHT22;39160;48.580;7.756;2023-04-19T07:28:08;12.50;99.90
53272;DHT22;39160;48.580;7.756;2023-04-19T07:32:59;12.60;99.90
53272;DHT22;39160;48.580;7.756;2023-04-19T07:37:50;12.70;99.90
53272;DHT22;39160;48.580;7.756;2023-04-19T07:42:41;12.80;99.90
53272;DHT22;39160;48.580;7.756;2023-04-19T07:47:32;12.90;99.90
53272;DHT22;39160;48.580;7.756;2023-04-19T07:52:23;12.90;99.90
53272;DHT22;39160;48.580;7.756;2023-04-19T07:57:13;12.80;99.90
53272;DHT22;39160;48.580;7.756;2023-04-19T08:02:04;13.00;99.90
53272;DHT22;39160;48.580;7.756;2023-04-19T08:06:55;13.10;99.90
53272;DHT22;39160;48.580;7.756;2023-04-19T08:11:45;13.20;99.90
53272;DHT22;39160;48.580;7.756;2023-04-19T08:16:36;13.20;99.90
53272;DHT22;39160;48.580;7.756;2023-04-19T08:21:27;13.40;99.90
53272;DHT22;39160;48.580;7.756;2023-04-19T08:26:17;13.60;99.90
53272;DHT22;39160;48.580;7.756;2023-04-19T08:31:08;13.70;99.90
53272;DHT22;39160;48.580;7.756;2023-04-19T08:35:59;13.80;99.90
53272;DHT22;39160;48.580;7.756;2023-04-19T08:40:52;13.90;99.90
53272;DHT22;39160;48.580;7.756;2023-04-19T08:45:48;14.10;99.90
53272;DHT22;39160;48.580;7.756;2023-04-19T08:50:41;14.00;99.90
53272;DHT22;39160;48.580;7.756;2023-04-19T08:55:32;14.10;99.90
53272;DHT22;39160;48.580;7.756;2023-04-19T09:00:23;14.10;99.90
53272;DHT22;39160;48.580;7.756;2023-04-19T09:05:14;14.30;99.90
53272;DHT22;39160;48.580;7.756;2023-04-19T09:10:07;14.40;99.90
53272;DHT22;39160;48.580;7.756;2023-04-19T09:14:58;14.50;99.90
53272;DHT22;39160;48.580;7.756;2023-04-19T09:19:49;14.40;99.90
53272;DHT22;39160;48.580;7.756;2023-04-19T09:24:39;14.60;99.90
53272;DHT22;39160;48.580;7.756;2023-04-19T09:29:32;14.90;99.90
53272;DHT22;39160;48.580;7.756;2023-04-19T09:34:22;14.90;99.90
53272;DHT22;39160;48.580;7.756;2023-04-19T09:39:13;15.30;99.90
53272;DHT22;39160;48.580;7.756;2023-04-19T09:44:11;15.10;99.90
53272;DHT22;39160;48.580;7.756;2023-04-19T09:54:08;15.20;99.90
53272;DHT22;39160;48.580;7.756;2023-04-19T09:58:59;15.50;99.90
53272;DHT22;39160;48.580;7.756;2023-04-19T10:03:50;15.50;99.90
53272;DHT22;39160;48.580;7.756;2023-04-19T10:08:41;15.50;99.90
53272;DHT22;39160;48.580;7.756;2023-04-19T10:13:36;15.70;99.90
53272;DHT22;39160;48.580;7.756;2023-04-19T10:18:26;15.70;99.90
53272;DHT22;39160;48.580;7.756;2023-04-19T10:23:17;15.90;99.90
53272;DHT22;39160;48.580;7.756;2023-04-19T10:28:09;16.10;99.90
53272;DHT22;39160;48.580;7.756;2023-04-19T10:33:00;16.00;99.90
53272;DHT22;39160;48.580;7.756;2023-04-19T10:38:12;16.00;99.90
53272;DHT22;39160;48.580;7.756;2023-04-19T10:48:02;16.20;99.90
53272;DHT22;39160;48.580;7.756;2023-04-19T10:52:56;16.30;99.90
53272;DHT22;39160;48.580;7.756;2023-04-19T10:58:03;16.30;99.90
53272;DHT22;39160;48.580;7.756;2023-04-19T11:07:57;16.30;99.90
53272;DHT22;39160;48.580;7.756;2023-04-19T11:12:48;16.40;99.90
53272;DHT22;39160;48.580;7.756;2023-04-19T11:17:40;16.40;99.90
53272;DHT22;39160;48.580;7.756;2023-04-19T11:22:32;16.40;99.90
53272;DHT22;39160;48.580;7.756;2023-04-19T11:27:23;16.60;99.90
53272;DHT22;39160;48.580;7.756;2023-04-19T11:32:15;17.00;99.70
53272;DHT22;39160;48.580;7.756;2023-04-19T11:37:06;16.80;99.50
53272;DHT22;39160;48.580;7.756;2023-04-19T11:41:57;16.80;99.60
53272;DHT22;39160;48.580;7.756;2023-04-19T11:47:02;17.00;99.50
53272;DHT22;39160;48.580;7.756;2023-04-19T11:51:59;17.10;99.10
53272;DHT22;39160;48.580;7.756;2023-04-19T12:01:51;17.10;98.80
53272;DHT22;39160;48.580;7.756;2023-04-19T12:06:42;16.90;98.70
53272;DHT22;39160;48.580;7.756;2023-04-19T12:11:42;17.00;98.50
53272;DHT22;39160;48.580;7.756;2023-04-19T12:16:33;17.20;98.30
53272;DHT22;39160;48.580;7.756;2023-04-19T12:21:29;17.40;98.10
53272;DHT22;39160;48.580;7.756;2023-04-19T12:26:21;17.10;98.20
53272;DHT22;39160;48.580;7.756;2023-04-19T12:31:12;16.80;98.40
53272;DHT22;39160;48.580;7.756;2023-04-19T12:36:03;17.00;98.40
53272;DHT22;39160;48.580;7.756;2023-04-19T12:40:54;17.80;98.00
53272;DHT22;39160;48.580;7.756;2023-04-19T12:45:45;17.10;97.90
53272;DHT22;39160;48.580;7.756;2023-04-19T12:50:36;16.90;98.20
53272;DHT22;39160;48.580;7.756;2023-04-19T12:55:26;16.90;97.90
53272;DHT22;39160;48.580;7.756;2023-04-19T13:00:17;16.90;97.90
53272;DHT22;39160;48.580;7.756;2023-04-19T13:05:08;16.90;97.90
53272;DHT22;39160;48.580;7.756;2023-04-19T13:09:59;16.80;97.90
53272;DHT22;39160;48.580;7.756;2023-04-19T13:14:50;16.60;97.90
53272;DHT22;39160;48.580;7.756;2023-04-19T13:19:42;16.70;97.90
53272;DHT22;39160;48.580;7.756;2023-04-19T13:24:33;16.60;97.90
53272;DHT22;39160;48.580;7.756;2023-04-19T13:29:24;16.40;98.00
53272;DHT22;39160;48.580;7.756;2023-04-19T13:34:15;16.20;98.10
53272;DHT22;39160;48.580;7.756;2023-04-19T13:39:06;16.10;98.20
53272;DHT22;39160;48.580;7.756;2023-04-19T13:43:57;15.90;98.50
53272;DHT22;39160;48.580;7.756;2023-04-19T13:48:47;15.80;98.60
53272;DHT22;39160;48.580;7.756;2023-04-19T13:53:38;15.80;98.60
53272;DHT22;39160;48.580;7.756;2023-04-19T13:58:30;15.80;98.80
53272;DHT22;39160;48.580;7.756;2023-04-19T14:03:21;15.50;99.20
53272;DHT22;39160;48.580;7.756;2023-04-19T14:08:13;15.30;99.70
53272;DHT22;39160;48.580;7.756;2023-04-19T14:13:03;15.10;99.90
53272;DHT22;39160;48.580;7.756;2023-04-19T14:17:54;14.90;99.90
53272;DHT22;39160;48.580;7.756;2023-04-19T14:22:45;15.00;99.90
53272;DHT22;39160;48.580;7.756;2023-04-19T14:27:40;15.00;99.90
53272;DHT22;39160;48.580;7.756;2023-04-19T14:32:34;15.00;99.90
53272;DHT22;39160;48.580;7.756;2023-04-19T14:37:25;14.90;99.90
53272;DHT22;39160;48.580;7.756;2023-04-19T14:42:21;15.00;99.90
53272;DHT22;39160;48.580;7.756;2023-04-19T14:47:15;15.00;99.90
53272;DHT22;39160;48.580;7.756;2023-04-19T14:52:07;15.20;99.90
53272;DHT22;39160;48.580;7.756;2023-04-19T14:56:58;15.30;99.90
53272;DHT22;39160;48.580;7.756;2023-04-19T15:01:49;15.20;99.90
53272;DHT22;39160;48.580;7.756;2023-04-19T15:06:39;15.10;99.90
53272;DHT22;39160;48.580;7.756;2023-04-19T15:11:30;15.10;99.90
53272;DHT22;39160;48.580;7.756;2023-04-19T15:16:21;15.20;99.90
53272;DHT22;39160;48.580;7.756;2023-04-19T15:21:12;15.40;99.90
53272;DHT22;39160;48.580;7.756;2023-04-19T15:26:02;15.30;99.90
53272;DHT22;39160;48.580;7.756;2023-04-19T15:30:59;15.30;99.90
53272;DHT22;39160;48.580;7.756;2023-04-19T15:35:51;15.40;99.90
53272;DHT22;39160;48.580;7.756;2023-04-19T15:40:42;15.50;99.90
53272;DHT22;39160;48.580;7.756;2023-04-19T15:45:32;15.40;99.90
53272;DHT22;39160;48.580;7.756;2023-04-19T15:50:23;15.40;99.90
53272;DHT22;39160;48.580;7.756;2023-04-19T15:55:14;15.10;99.90
53272;DHT22;39160;48.580;7.756;2023-04-19T16:00:05;14.90;99.90
53272;DHT22;39160;48.580;7.756;2023-04-19T16:04:58;14.80;99.90
53272;DHT22;39160;48.580;7.756;2023-04-19T16:09:49;14.60;99.90
53272;DHT22;39160;48.580;7.756;2023-04-19T16:14:40;14.50;99.90
53272;DHT22;39160;48.580;7.756;2023-04-19T16:19:30;14.40;99.90
53272;DHT22;39160;48.580;7.756;2023-04-19T16:24:21;14.40;99.90
53272;DHT22;39160;48.580;7.756;2023-04-19T16:29:12;14.30;99.90
53272;DHT22;39160;48.580;7.756;2023-04-19T16:34:02;14.30;99.90
53272;DHT22;39160;48.580;7.756;2023-04-19T16:38:53;14.40;99.90
53272;DHT22;39160;48.580;7.756;2023-04-19T16:43:44;14.30;99.90
53272;DHT22;39160;48.580;7.756;2023-04-19T16:48:34;14.40;99.90
53272;DHT22;39160;48.580;7.756;2023-04-19T16:53:25;14.30;99.90
53272;DHT22;39160;48.580;7.756;2023-04-19T16:58:16;14.30;99.90
53272;DHT22;39160;48.580;7.756;2023-04-19T17:03:07;14.40;99.90
53272;DHT22;39160;48.580;7.756;2023-04-19T17:07:58;14.50;99.90
53272;DHT22;39160;48.580;7.756;2023-04-19T17:12:49;14.50;99.90
53272;DHT22;39160;48.580;7.756;2023-04-19T17:17:39;14.60;99.90
53272;DHT22;39160;48.580;7.756;2023-04-19T17:22:32;14.60;99.90
53272;DHT22;39160;48.580;7.756;2023-04-19T17:27:22;14.60;99.90
53272;DHT22;39160;48.580;7.756;2023-04-19T17:32:13;14.50;99.90
53272;DHT22;39160;48.580;7.756;2023-04-19T17:37:03;14.40;99.90
53272;DHT22;39160;48.580;7.756;2023-04-19T17:41:55;14.20;99.90
53272;DHT22;39160;48.580;7.756;2023-04-19T17:46:45;14.20;99.90
53272;DHT22;39160;48.580;7.756;2023-04-19T17:51:36;14.00;99.90
53272;DHT22;39160;48.580;7.756;2023-04-19T17:56:29;14.00;99.90
53272;DHT22;39160;48.580;7.756;2023-04-19T18:01:21;13.80;99.90
53272;DHT22;39160;48.580;7.756;2023-04-19T18:06:12;13.70;99.90
53272;DHT22;39160;48.580;7.756;2023-04-19T18:11:05;13.60;99.90
53272;DHT22;39160;48.580;7.756;2023-04-19T18:15:56;13.60;99.90
53272;DHT22;39160;48.580;7.756;2023-04-19T18:20:49;13.60;99.90
53272;DHT22;39160;48.580;7.756;2023-04-19T18:25:40;13.50;99.90
53272;DHT22;39160;48.580;7.756;2023-04-19T18:30:31;13.50;99.90
53272;DHT22;39160;48.580;7.756;2023-04-19T18:35:21;13.30;99.90
53272;DHT22;39160;48.580;7.756;2023-04-19T18:40:12;13.30;99.90
53272;DHT22;39160;48.580;7.756;2023-04-19T18:45:03;13.20;99.90
53272;DHT22;39160;48.580;7.756;2023-04-19T18:49:54;13.10;99.90
53272;DHT22;39160;48.580;7.756;2023-04-19T18:54:45;13.10;99.90
53272;DHT22;39160;48.580;7.756;2023-04-19T18:59:36;13.10;99.90
53272;DHT22;39160;48.580;7.756;2023-04-19T19:04:26;13.10;99.90
53272;DHT22;39160;48.580;7.756;2023-04-19T19:09:17;13.20;99.90
53272;DHT22;39160;48.580;7.756;2023-04-19T19:14:08;13.20;99.90
53272;DHT22;39160;48.580;7.756;2023-04-19T19:18:58;13.20;99.90
53272;DHT22;39160;48.580;7.756;2023-04-19T19:23:49;13.20;99.90
53272;DHT22;39160;48.580;7.756;2023-04-19T19:28:40;13.20;99.90
53272;DHT22;39160;48.580;7.756;2023-04-19T19:33:31;13.10;99.80
53272;DHT22;39160;48.580;7.756;2023-04-19T19:38:21;13.10;99.70
53272;DHT22;39160;48.580;7.756;2023-04-19T19:43:12;13.10;99.50
53272;DHT22;39160;48.580;7.756;2023-04-19T19:48:03;12.90;99.50
53272;DHT22;39160;48.580;7.756;2023-04-19T19:52:54;12.70;99.40
53272;DHT22;39160;48.580;7.756;2023-04-19T19:57:45;12.60;99.30
53272;DHT22;39160;48.580;7.756;2023-04-19T20:02:39;12.50;99.40
53272;DHT22;39160;48.580;7.756;2023-04-19T20:07:30;12.40;99.30
53272;DHT22;39160;48.580;7.756;2023-04-19T20:12:21;12.30;99.30
53272;DHT22;39160;48.580;7.756;2023-04-19T20:17:12;12.20;99.40
53272;DHT22;39160;48.580;7.756;2023-04-19T20:22:02;12.10;99.40
53272;DHT22;39160;48.580;7.756;2023-04-19T20:26:54;12.10;99.40
53272;DHT22;39160;48.580;7.756;2023-04-19T20:31:44;12.00;99.40
53272;DHT22;39160;48.580;7.756;2023-04-19T20:36:35;11.90;99.40
53272;DHT22;39160;48.580;7.756;2023-04-19T20:41:26;11.80;99.40
53272;DHT22;39160;48.580;7.756;2023-04-19T20:46:17;11.80;99.30
53272;DHT22;39160;48.580;7.756;2023-04-19T20:51:07;11.90;99.30
53272;DHT22;39160;48.580;7.756;2023-04-19T20:55:58;11.80;99.20
53272;DHT22;39160;48.580;7.756;2023-04-19T21:00:49;11.90;99.00
53272;DHT22;39160;48.580;7.756;2023-04-19T21:05:40;11.80;98.80
53272;DHT22;39160;48.580;7.756;2023-04-19T21:10:31;11.80;98.80
53272;DHT22;39160;48.580;7.756;2023-04-19T21:15:21;11.70;98.60
53272;DHT22;39160;48.580;7.756;2023-04-19T21:20:12;11.70;98.50
53272;DHT22;39160;48.580;7.756;2023-04-19T21:25:08;11.70;98.30
53272;DHT22;39160;48.580;7.756;2023-04-19T21:29:59;11.60;98.30
53272;DHT22;39160;48.580;7.756;2023-04-19T21:34:54;11.50;98.20
53272;DHT22;39160;48.580;7.756;2023-04-19T21:39:44;11.50;98.10
53272;DHT22;39160;48.580;7.756;2023-04-19T21:44:35;11.50;98.00
53272;DHT22;39160;48.580;7.756;2023-04-19T21:49:25;11.50;97.90
53272;DHT22;39160;48.580;7.756;2023-04-19T21:54:17;11.40;97.80
53272;DHT22;39160;48.580;7.756;2023-04-19T21:59:08;11.20;97.70
53272;DHT22;39160;48.580;7.756;2023-04-19T22:03:59;11.20;97.60
53272;DHT22;39160;48.580;7.756;2023-04-19T22:08:51;11.00;97.60
53272;DHT22;39160;48.580;7.756;2023-04-19T22:13:42;10.90;97.60
53272;DHT22;39160;48.580;7.756;2023-04-19T22:18:33;10.90;97.50
53272;DHT22;39160;48.580;7.756;2023-04-19T22:23:25;10.80;97.50
53272;DHT22;39160;48.580;7.756;2023-04-19T22:28:15;10.70;97.50
53272;DHT22;39160;48.580;7.756;2023-04-19T22:33:06;10.60;97.40
53272;DHT22;39160;48.580;7.756;2023-04-19T22:37:57;10.50;97.40
53272;DHT22;39160;48.580;7.756;2023-04-19T22:42:50;10.40;97.40
53272;DHT22;39160;48.580;7.756;2023-04-19T22:47:40;10.40;97.30
53272;DHT22;39160;48.580;7.756;2023-04-19T22:52:31;10.40;97.30
53272;DHT22;39160;48.580;7.756;2023-04-19T22:57:23;10.40;97.30
53272;DHT22;39160;48.580;7.756;2023-04-19T23:02:14;10.30;97.30
53272;DHT22;39160;48.580;7.756;2023-04-19T23:07:05;10.20;97.30
53272;DHT22;39160;48.580;7.756;2023-04-19T23:11:56;10.10;97.20
53272;DHT22;39160;48.580;7.756;2023-04-19T23:16:51;10.00;97.30
53272;DHT22;39160;48.580;7.756;2023-04-19T23:21:44;9.90;97.20
53272;DHT22;39160;48.580;7.756;2023-04-19T23:26:34;9.80;97.20
53272;DHT22;39160;48.580;7.756;2023-04-19T23:31:25;9.70;97.20
53272;DHT22;39160;48.580;7.756;2023-04-19T23:36:16;9.70;97.20
53272;DHT22;39160;48.580;7.756;2023-04-19T23:41:09;9.60;97.20
53272;DHT22;39160;48.580;7.756;2023-04-19T23:46:00;9.60;97.20
53272;DHT22;39160;48.580;7.756;2023-04-19T23:50:51;9.50;97.20
53272;DHT22;39160;48.580;7.756;2023-04-19T23:55:42;9.40;97.20
